sensor_id;sensor_type;location;lat;lon;timestamp;P1;durP1;ratioP1;P2;durP2;ratioP2
57947;SDS011;43754;56.992;24.292;2023-05-18T00:01:20;8.93;;;1.83;;
57947;SDS011;43754;56.992;24.292;2023-05-18T00:03:52;10.77;;;1.98;;
57947;SDS011;43754;56.992;24.292;2023-05-18T00:06:26;13.82;;;2.20;;
57947;SDS011;43754;56.992;24.292;2023-05-18T00:08:58;9.82;;;2.85;;
57947;SDS011;43754;56.992;24.292;2023-05-18T00:11:30;6.30;;;1.85;;
57947;SDS011;43754;56.992;24.292;2023-05-18T00:14:05;7.68;;;2.67;;
57947;SDS011;43754;56.992;24.292;2023-05-18T00:16:38;8.18;;;3.08;;
57947;SDS011;43754;56.992;24.292;2023-05-18T00:19:11;8.13;;;2.85;;
57947;SDS011;43754;56.992;24.292;2023-05-18T00:21:46;7.93;;;3.05;;
57947;SDS011;43754;56.992;24.292;2023-05-18T00:24:19;9.88;;;3.22;;
57947;SDS011;43754;56.992;24.292;2023-05-18T00:26:51;6.15;;;2.35;;
57947;SDS011;43754;56.992;24.292;2023-05-18T00:29:25;6.82;;;3.25;;
57947;SDS011;43754;56.992;24.292;2023-05-18T00:31:57;6.70;;;2.70;;
57947;SDS011;43754;56.992;24.292;2023-05-18T00:34:29;9.07;;;2.53;;
57947;SDS011;43754;56.992;24.292;2023-05-18T00:37:01;5.55;;;2.15;;
57947;SDS011;43754;56.992;24.292;2023-05-18T00:39:33;11.77;;;3.40;;
57947;SDS011;43754;56.992;24.292;2023-05-18T00:42:06;5.53;;;2.22;;
57947;SDS011;43754;56.992;24.292;2023-05-18T00:44:39;7.15;;;2.38;;
57947;SDS011;43754;56.992;24.292;2023-05-18T00:47:11;5.93;;;2.10;;
57947;SDS011;43754;56.992;24.292;2023-05-18T00:49:44;17.92;;;3.55;;
57947;SDS011;43754;56.992;24.292;2023-05-18T00:52:16;5.97;;;2.10;;
57947;SDS011;43754;56.992;24.292;2023-05-18T00:54:48;8.38;;;2.65;;
57947;SDS011;43754;56.992;24.292;2023-05-18T00:57:22;11.50;;;2.83;;
57947;SDS011;43754;56.992;24.292;2023-05-18T01:03:05;7.28;;;3.08;;
57947;SDS011;43754;56.992;24.292;2023-05-18T01:05:41;12.13;;;3.33;;
57947;SDS011;43754;56.992;24.292;2023-05-18T01:08:13;10.80;;;2.97;;
57947;SDS011;43754;56.992;24.292;2023-05-18T01:10:47;9.60;;;3.70;;
57947;SDS011;43754;56.992;24.292;2023-05-18T01:13:26;7.60;;;2.75;;
57947;SDS011;43754;56.992;24.292;2023-05-18T01:16:05;8.07;;;3.17;;
57947;SDS011;43754;56.992;24.292;2023-05-18T01:18:44;13.88;;;3.20;;
57947;SDS011;43754;56.992;24.292;2023-05-18T01:21:22;8.85;;;3.00;;
57947;SDS011;43754;56.992;24.292;2023-05-18T01:24:19;15.43;;;2.78;;
57947;SDS011;43754;56.992;24.292;2023-05-18T01:27:01;10.90;;;3.42;;
57947;SDS011;43754;56.992;24.292;2023-05-18T01:29:37;8.63;;;3.08;;
57947;SDS011;43754;56.992;24.292;2023-05-18T01:32:14;12.93;;;3.33;;
57947;SDS011;43754;56.992;24.292;2023-05-18T01:34:48;12.30;;;3.67;;
57947;SDS011;43754;56.992;24.292;2023-05-18T01:37:20;10.35;;;3.53;;
57947;SDS011;43754;56.992;24.292;2023-05-18T01:39:54;13.30;;;3.30;;
57947;SDS011;43754;56.992;24.292;2023-05-18T01:42:28;9.00;;;3.17;;
57947;SDS011;43754;56.992;24.292;2023-05-18T01:45:02;11.57;;;3.30;;
57947;SDS011;43754;56.992;24.292;2023-05-18T01:47:38;10.57;;;3.88;;
57947;SDS011;43754;56.992;24.292;2023-05-18T01:50:16;6.50;;;3.10;;
57947;SDS011;43754;56.992;24.292;2023-05-18T01:52:56;11.35;;;3.83;;
57947;SDS011;43754;56.992;24.292;2023-05-18T01:55:35;8.65;;;3.95;;
57947;SDS011;43754;56.992;24.292;2023-05-18T01:58:12;7.95;;;3.63;;
57947;SDS011;43754;56.992;24.292;2023-05-18T02:00:45;5.95;;;3.30;;
57947;SDS011;43754;56.992;24.292;2023-05-18T02:03:17;5.60;;;2.47;;
57947;SDS011;43754;56.992;24.292;2023-05-18T02:05:49;7.55;;;3.38;;
57947;SDS011;43754;56.992;24.292;2023-05-18T02:08:21;6.13;;;2.95;;
57947;SDS011;43754;56.992;24.292;2023-05-18T02:10:53;6.15;;;2.70;;
57947;SDS011;43754;56.992;24.292;2023-05-18T02:13:27;5.80;;;2.75;;
57947;SDS011;43754;56.992;24.292;2023-05-18T02:15:59;7.30;;;2.95;;
57947;SDS011;43754;56.992;24.292;2023-05-18T02:18:31;6.57;;;2.40;;
57947;SDS011;43754;56.992;24.292;2023-05-18T02:21:07;8.75;;;2.92;;
57947;SDS011;43754;56.992;24.292;2023-05-18T02:23:40;8.10;;;2.80;;
57947;SDS011;43754;56.992;24.292;2023-05-18T02:26:12;5.32;;;2.42;;
57947;SDS011;43754;56.992;24.292;2023-05-18T02:28:46;6.70;;;2.40;;
57947;SDS011;43754;56.992;24.292;2023-05-18T02:31:18;6.00;;;3.08;;
57947;SDS011;43754;56.992;24.292;2023-05-18T02:33:50;4.93;;;2.78;;
57947;SDS011;43754;56.992;24.292;2023-05-18T02:36:23;3.30;;;2.28;;
57947;SDS011;43754;56.992;24.292;2023-05-18T02:38:56;4.40;;;2.40;;
57947;SDS011;43754;56.992;24.292;2023-05-18T02:41:28;7.03;;;2.72;;
57947;SDS011;43754;56.992;24.292;2023-05-18T02:44:02;5.32;;;2.80;;
57947;SDS011;43754;56.992;24.292;2023-05-18T02:46:34;6.90;;;3.35;;
57947;SDS011;43754;56.992;24.292;2023-05-18T02:49:06;5.70;;;3.53;;
57947;SDS011;43754;56.992;24.292;2023-05-18T02:51:38;6.15;;;3.70;;
57947;SDS011;43754;56.992;24.292;2023-05-18T02:54:11;9.25;;;4.90;;
57947;SDS011;43754;56.992;24.292;2023-05-18T02:56:45;9.02;;;5.53;;
57947;SDS011;43754;56.992;24.292;2023-05-18T02:59:27;14.75;;;6.00;;
57947;SDS011;43754;56.992;24.292;2023-05-18T03:01:59;9.30;;;4.93;;
57947;SDS011;43754;56.992;24.292;2023-05-18T03:04:32;10.73;;;5.82;;
57947;SDS011;43754;56.992;24.292;2023-05-18T03:07:04;12.65;;;6.28;;
57947;SDS011;43754;56.992;24.292;2023-05-18T03:09:38;11.63;;;5.80;;
57947;SDS011;43754;56.992;24.292;2023-05-18T03:12:11;21.25;;;5.60;;
57947;SDS011;43754;56.992;24.292;2023-05-18T03:14:45;13.88;;;5.93;;
57947;SDS011;43754;56.992;24.292;2023-05-18T03:17:17;9.48;;;4.45;;
57947;SDS011;43754;56.992;24.292;2023-05-18T03:19:49;14.93;;;6.10;;
57947;SDS011;43754;56.992;24.292;2023-05-18T03:22:22;9.95;;;4.93;;
57947;SDS011;43754;56.992;24.292;2023-05-18T03:24:54;12.55;;;4.45;;
57947;SDS011;43754;56.992;24.292;2023-05-18T03:27:26;6.18;;;3.60;;
57947;SDS011;43754;56.992;24.292;2023-05-18T03:30:00;7.72;;;4.28;;
57947;SDS011;43754;56.992;24.292;2023-05-18T03:32:33;8.43;;;3.75;;
57947;SDS011;43754;56.992;24.292;2023-05-18T03:35:08;8.10;;;3.78;;
57947;SDS011;43754;56.992;24.292;2023-05-18T03:37:40;10.95;;;3.35;;
57947;SDS011;43754;56.992;24.292;2023-05-18T03:40:13;5.47;;;2.97;;
57947;SDS011;43754;56.992;24.292;2023-05-18T03:42:48;11.18;;;3.33;;
57947;SDS011;43754;56.992;24.292;2023-05-18T03:45:22;6.00;;;3.47;;
57947;SDS011;43754;56.992;24.292;2023-05-18T03:47:54;8.45;;;3.35;;
57947;SDS011;43754;56.992;24.292;2023-05-18T03:50:27;4.95;;;2.55;;
57947;SDS011;43754;56.992;24.292;2023-05-18T03:53:00;6.55;;;3.25;;
57947;SDS011;43754;56.992;24.292;2023-05-18T03:55:32;7.85;;;3.03;;
57947;SDS011;43754;56.992;24.292;2023-05-18T03:58:04;5.38;;;3.45;;
57947;SDS011;43754;56.992;24.292;2023-05-18T04:00:37;7.30;;;3.15;;
57947;SDS011;43754;56.992;24.292;2023-05-18T04:03:09;10.27;;;3.55;;
57947;SDS011;43754;56.992;24.292;2023-05-18T04:05:43;4.22;;;3.10;;
57947;SDS011;43754;56.992;24.292;2023-05-18T04:08:15;5.78;;;3.50;;
57947;SDS011;43754;56.992;24.292;2023-05-18T04:10:47;5.75;;;3.30;;
57947;SDS011;43754;56.992;24.292;2023-05-18T04:13:19;8.90;;;3.47;;
57947;SDS011;43754;56.992;24.292;2023-05-18T04:15:53;6.10;;;3.97;;
57947;SDS011;43754;56.992;24.292;2023-05-18T04:18:25;8.00;;;3.63;;
57947;SDS011;43754;56.992;24.292;2023-05-18T04:21:00;8.50;;;3.60;;
57947;SDS011;43754;56.992;24.292;2023-05-18T04:23:33;7.20;;;3.80;;
57947;SDS011;43754;56.992;24.292;2023-05-18T04:26:10;6.45;;;3.70;;
57947;SDS011;43754;56.992;24.292;2023-05-18T04:28:42;11.25;;;3.38;;
57947;SDS011;43754;56.992;24.292;2023-05-18T04:31:15;4.85;;;3.28;;
57947;SDS011;43754;56.992;24.292;2023-05-18T04:33:48;6.57;;;3.00;;
57947;SDS011;43754;56.992;24.292;2023-05-18T04:36:21;4.05;;;2.67;;
57947;SDS011;43754;56.992;24.292;2023-05-18T04:38:56;9.25;;;3.35;;
57947;SDS011;43754;56.992;24.292;2023-05-18T04:41:31;6.93;;;2.88;;
57947;SDS011;43754;56.992;24.292;2023-05-18T04:44:04;7.85;;;2.85;;
57947;SDS011;43754;56.992;24.292;2023-05-18T04:46:38;6.32;;;2.40;;
57947;SDS011;43754;56.992;24.292;2023-05-18T04:49:12;8.30;;;3.08;;
57947;SDS011;43754;56.992;24.292;2023-05-18T04:51:45;9.60;;;4.60;;
57947;SDS011;43754;56.992;24.292;2023-05-18T04:54:17;8.85;;;4.38;;
57947;SDS011;43754;56.992;24.292;2023-05-18T04:56:51;7.50;;;3.58;;
57947;SDS011;43754;56.992;24.292;2023-05-18T04:59:23;5.60;;;3.58;;
57947;SDS011;43754;56.992;24.292;2023-05-18T05:01:59;7.47;;;3.70;;
57947;SDS011;43754;56.992;24.292;2023-05-18T05:04:31;4.70;;;3.80;;
57947;SDS011;43754;56.992;24.292;2023-05-18T05:07:04;5.53;;;3.50;;
57947;SDS011;43754;56.992;24.292;2023-05-18T05:09:36;5.13;;;3.20;;
57947;SDS011;43754;56.992;24.292;2023-05-18T05:12:08;3.72;;;2.80;;
57947;SDS011;43754;56.992;24.292;2023-05-18T05:14:40;4.18;;;2.97;;
57947;SDS011;43754;56.992;24.292;2023-05-18T05:17:14;4.15;;;3.50;;
57947;SDS011;43754;56.992;24.292;2023-05-18T05:19:46;4.50;;;3.83;;
57947;SDS011;43754;56.992;24.292;2023-05-18T05:22:18;4.82;;;3.33;;
57947;SDS011;43754;56.992;24.292;2023-05-18T05:24:51;7.25;;;3.80;;
57947;SDS011;43754;56.992;24.292;2023-05-18T05:27:23;8.85;;;3.50;;
57947;SDS011;43754;56.992;24.292;2023-05-18T05:29:56;3.25;;;2.75;;
57947;SDS011;43754;56.992;24.292;2023-05-18T05:32:30;4.18;;;2.75;;
57947;SDS011;43754;56.992;24.292;2023-05-18T05:35:03;5.80;;;2.70;;
57947;SDS011;43754;56.992;24.292;2023-05-18T05:37:37;4.13;;;2.67;;
57947;SDS011;43754;56.992;24.292;2023-05-18T05:40:09;7.30;;;2.40;;
57947;SDS011;43754;56.992;24.292;2023-05-18T05:42:46;4.72;;;1.80;;
57947;SDS011;43754;56.992;24.292;2023-05-18T05:45:18;3.65;;;1.50;;
57947;SDS011;43754;56.992;24.292;2023-05-18T05:47:59;1.93;;;1.43;;
57947;SDS011;43754;56.992;24.292;2023-05-18T05:50:33;1.88;;;1.10;;
57947;SDS011;43754;56.992;24.292;2023-05-18T05:53:08;3.28;;;1.75;;
57947;SDS011;43754;56.992;24.292;2023-05-18T05:55:43;6.20;;;2.75;;
57947;SDS011;43754;56.992;24.292;2023-05-18T05:58:17;1.48;;;0.80;;
57947;SDS011;43754;56.992;24.292;2023-05-18T06:00:54;2.03;;;1.25;;
57947;SDS011;43754;56.992;24.292;2023-05-18T06:03:27;5.70;;;2.95;;
57947;SDS011;43754;56.992;24.292;2023-05-18T06:06:08;7.63;;;4.70;;
57947;SDS011;43754;56.992;24.292;2023-05-18T06:08:40;4.13;;;1.38;;
57947;SDS011;43754;56.992;24.292;2023-05-18T06:11:12;1.40;;;0.88;;
57947;SDS011;43754;56.992;24.292;2023-05-18T06:13:44;1.02;;;0.60;;
57947;SDS011;43754;56.992;24.292;2023-05-18T06:16:16;1.73;;;0.75;;
57947;SDS011;43754;56.992;24.292;2023-05-18T06:18:50;1.60;;;0.80;;
57947;SDS011;43754;56.992;24.292;2023-05-18T06:21:22;1.38;;;0.45;;
57947;SDS011;43754;56.992;24.292;2023-05-18T06:23:54;2.47;;;0.88;;
57947;SDS011;43754;56.992;24.292;2023-05-18T06:26:40;3.10;;;0.80;;
57947;SDS011;43754;56.992;24.292;2023-05-18T06:29:31;1.70;;;0.80;;
57947;SDS011;43754;56.992;24.292;2023-05-18T06:32:06;2.15;;;0.90;;
57947;SDS011;43754;56.992;24.292;2023-05-18T06:34:43;2.30;;;0.82;;
57947;SDS011;43754;56.992;24.292;2023-05-18T06:37:16;4.78;;;1.15;;
57947;SDS011;43754;56.992;24.292;2023-05-18T06:39:49;1.83;;;1.00;;
57947;SDS011;43754;56.992;24.292;2023-05-18T06:42:21;2.55;;;0.70;;
57947;SDS011;43754;56.992;24.292;2023-05-18T06:45:06;3.30;;;0.80;;
57947;SDS011;43754;56.992;24.292;2023-05-18T06:47:57;4.88;;;0.65;;
57947;SDS011;43754;56.992;24.292;2023-05-18T06:50:30;2.83;;;0.80;;
57947;SDS011;43754;56.992;24.292;2023-05-18T06:53:03;1.42;;;0.63;;
57947;SDS011;43754;56.992;24.292;2023-05-18T06:55:36;1.90;;;0.65;;
57947;SDS011;43754;56.992;24.292;2023-05-18T06:58:08;2.20;;;0.80;;
57947;SDS011;43754;56.992;24.292;2023-05-18T07:00:41;1.65;;;0.70;;
57947;SDS011;43754;56.992;24.292;2023-05-18T07:03:14;2.47;;;0.65;;
57947;SDS011;43754;56.992;24.292;2023-05-18T07:05:48;1.65;;;0.68;;
57947;SDS011;43754;56.992;24.292;2023-05-18T07:08:20;5.53;;;0.73;;
57947;SDS011;43754;56.992;24.292;2023-05-18T07:10:52;1.13;;;0.68;;
57947;SDS011;43754;56.992;24.292;2023-05-18T07:13:25;3.97;;;0.93;;
57947;SDS011;43754;56.992;24.292;2023-05-18T07:15:57;2.22;;;0.60;;
57947;SDS011;43754;56.992;24.292;2023-05-18T07:18:30;2.70;;;0.70;;
57947;SDS011;43754;56.992;24.292;2023-05-18T07:21:03;1.90;;;0.70;;
57947;SDS011;43754;56.992;24.292;2023-05-18T07:23:36;1.83;;;0.68;;
57947;SDS011;43754;56.992;24.292;2023-05-18T07:26:08;1.10;;;0.65;;
57947;SDS011;43754;56.992;24.292;2023-05-18T07:28:42;6.40;;;0.90;;
57947;SDS011;43754;56.992;24.292;2023-05-18T07:31:14;2.53;;;0.65;;
57947;SDS011;43754;56.992;24.292;2023-05-18T07:33:47;3.25;;;0.93;;
57947;SDS011;43754;56.992;24.292;2023-05-18T07:36:20;2.20;;;0.55;;
57947;SDS011;43754;56.992;24.292;2023-05-18T07:38:53;4.60;;;1.00;;
57947;SDS011;43754;56.992;24.292;2023-05-18T07:41:27;2.10;;;0.40;;
57947;SDS011;43754;56.992;24.292;2023-05-18T07:43:59;3.03;;;0.55;;
57947;SDS011;43754;56.992;24.292;2023-05-18T07:46:31;2.97;;;0.40;;
57947;SDS011;43754;56.992;24.292;2023-05-18T07:49:03;1.58;;;0.57;;
57947;SDS011;43754;56.992;24.292;2023-05-18T07:51:36;3.58;;;0.55;;
57947;SDS011;43754;56.992;24.292;2023-05-18T07:54:08;3.33;;;0.57;;
57947;SDS011;43754;56.992;24.292;2023-05-18T07:56:40;2.30;;;0.60;;
57947;SDS011;43754;56.992;24.292;2023-05-18T07:59:14;0.55;;;0.47;;
57947;SDS011;43754;56.992;24.292;2023-05-18T08:01:46;5.30;;;1.15;;
57947;SDS011;43754;56.992;24.292;2023-05-18T08:04:19;1.30;;;0.40;;
57947;SDS011;43754;56.992;24.292;2023-05-18T08:06:53;0.65;;;0.40;;
57947;SDS011;43754;56.992;24.292;2023-05-18T08:09:26;1.98;;;0.45;;
57947;SDS011;43754;56.992;24.292;2023-05-18T08:11:58;1.08;;;0.40;;
57947;SDS011;43754;56.992;24.292;2023-05-18T08:14:31;2.95;;;0.30;;
57947;SDS011;43754;56.992;24.292;2023-05-18T08:17:03;0.52;;;0.40;;
57947;SDS011;43754;56.992;24.292;2023-05-18T08:19:36;0.57;;;0.50;;
57947;SDS011;43754;56.992;24.292;2023-05-18T08:22:12;1.45;;;0.43;;
57947;SDS011;43754;56.992;24.292;2023-05-18T08:24:45;13.32;;;0.70;;
57947;SDS011;43754;56.992;24.292;2023-05-18T08:27:17;38.83;;;1.75;;
57947;SDS011;43754;56.992;24.292;2023-05-18T08:29:50;17.73;;;1.25;;
57947;SDS011;43754;56.992;24.292;2023-05-18T08:32:22;0.60;;;0.40;;
57947;SDS011;43754;56.992;24.292;2023-05-18T08:34:54;1.30;;;0.30;;
57947;SDS011;43754;56.992;24.292;2023-05-18T08:37:28;0.50;;;0.40;;
57947;SDS011;43754;56.992;24.292;2023-05-18T08:40:00;9.85;;;0.73;;
57947;SDS011;43754;56.992;24.292;2023-05-18T08:42:32;0.90;;;0.50;;
57947;SDS011;43754;56.992;24.292;2023-05-18T08:45:21;2.65;;;0.47;;
57947;SDS011;43754;56.992;24.292;2023-05-18T08:47:59;1.02;;;0.63;;
57947;SDS011;43754;56.992;24.292;2023-05-18T08:50:32;7.45;;;0.65;;
57947;SDS011;43754;56.992;24.292;2023-05-18T08:53:08;2.42;;;0.30;;
57947;SDS011;43754;56.992;24.292;2023-05-18T08:55:42;1.52;;;0.52;;
57947;SDS011;43754;56.992;24.292;2023-05-18T08:58:19;2.38;;;0.50;;
57947;SDS011;43754;56.992;24.292;2023-05-18T09:00:54;2.65;;;0.55;;
57947;SDS011;43754;56.992;24.292;2023-05-18T09:03:28;21.38;;;2.50;;
57947;SDS011;43754;56.992;24.292;2023-05-18T09:06:02;6.15;;;0.90;;
57947;SDS011;43754;56.992;24.292;2023-05-18T09:08:36;9.02;;;1.20;;
57947;SDS011;43754;56.992;24.292;2023-05-18T09:11:09;3.35;;;0.60;;
57947;SDS011;43754;56.992;24.292;2023-05-18T09:13:43;2.30;;;0.40;;
57947;SDS011;43754;56.992;24.292;2023-05-18T09:16:16;1.15;;;0.30;;
57947;SDS011;43754;56.992;24.292;2023-05-18T09:18:48;23.38;;;1.83;;
57947;SDS011;43754;56.992;24.292;2023-05-18T09:21:20;1.45;;;0.40;;
57947;SDS011;43754;56.992;24.292;2023-05-18T09:23:54;0.30;;;0.30;;
57947;SDS011;43754;56.992;24.292;2023-05-18T09:26:26;4.80;;;0.70;;
57947;SDS011;43754;56.992;24.292;2023-05-18T09:28:58;0.75;;;0.50;;
57947;SDS011;43754;56.992;24.292;2023-05-18T09:31:30;1.05;;;0.50;;
57947;SDS011;43754;56.992;24.292;2023-05-18T09:34:02;2.35;;;0.40;;
57947;SDS011;43754;56.992;24.292;2023-05-18T09:36:37;2.17;;;0.60;;
57947;SDS011;43754;56.992;24.292;2023-05-18T09:39:10;3.50;;;0.50;;
57947;SDS011;43754;56.992;24.292;2023-05-18T09:41:43;2.38;;;0.50;;
57947;SDS011;43754;56.992;24.292;2023-05-18T09:44:15;0.25;;;0.20;;
57947;SDS011;43754;56.992;24.292;2023-05-18T09:46:48;3.67;;;0.35;;
57947;SDS011;43754;56.992;24.292;2023-05-18T09:49:27;1.83;;;0.60;;
57947;SDS011;43754;56.992;24.292;2023-05-18T09:52:00;2.08;;;0.38;;
57947;SDS011;43754;56.992;24.292;2023-05-18T09:54:33;7.35;;;0.60;;
57947;SDS011;43754;56.992;24.292;2023-05-18T09:57:07;2.60;;;0.30;;
57947;SDS011;43754;56.992;24.292;2023-05-18T09:59:42;1.10;;;0.20;;
57947;SDS011;43754;56.992;24.292;2023-05-18T10:02:14;2.47;;;0.40;;
57947;SDS011;43754;56.992;24.292;2023-05-18T10:04:47;4.68;;;0.50;;
57947;SDS011;43754;56.992;24.292;2023-05-18T10:07:21;1.02;;;0.40;;
57947;SDS011;43754;56.992;24.292;2023-05-18T10:10:00;1.48;;;0.38;;
57947;SDS011;43754;56.992;24.292;2023-05-18T10:12:35;1.73;;;0.50;;
57947;SDS011;43754;56.992;24.292;2023-05-18T10:15:12;1.38;;;0.30;;
57947;SDS011;43754;56.992;24.292;2023-05-18T10:17:45;0.32;;;0.20;;
57947;SDS011;43754;56.992;24.292;2023-05-18T10:20:19;12.00;;;0.70;;
57947;SDS011;43754;56.992;24.292;2023-05-18T10:22:57;0.47;;;0.10;;
57947;SDS011;43754;56.992;24.292;2023-05-18T10:25:37;0.40;;;0.25;;
57947;SDS011;43754;56.992;24.292;2023-05-18T10:28:10;1.38;;;0.32;;
57947;SDS011;43754;56.992;24.292;2023-05-18T10:30:42;2.95;;;0.10;;
57947;SDS011;43754;56.992;24.292;2023-05-18T10:33:14;0.30;;;0.20;;
57947;SDS011;43754;56.992;24.292;2023-05-18T10:35:59;0.43;;;0.25;;
57947;SDS011;43754;56.992;24.292;2023-05-18T10:38:35;4.40;;;0.38;;
57947;SDS011;43754;56.992;24.292;2023-05-18T10:41:14;1.83;;;0.60;;
57947;SDS011;43754;56.992;24.292;2023-05-18T10:43:49;2.50;;;0.28;;
57947;SDS011;43754;56.992;24.292;2023-05-18T10:46:23;3.05;;;0.63;;
57947;SDS011;43754;56.992;24.292;2023-05-18T10:48:57;1.35;;;0.35;;
57947;SDS011;43754;56.992;24.292;2023-05-18T10:51:31;0.10;;;0.10;;
57947;SDS011;43754;56.992;24.292;2023-05-18T10:54:10;1.10;;;0.40;;
57947;SDS011;43754;56.992;24.292;2023-05-18T10:56:48;2.78;;;0.40;;
57947;SDS011;43754;56.992;24.292;2023-05-18T10:59:22;0.70;;;0.28;;
57947;SDS011;43754;56.992;24.292;2023-05-18T11:01:54;3.50;;;1.15;;
57947;SDS011;43754;56.992;24.292;2023-05-18T11:04:28;0.52;;;0.30;;
57947;SDS011;43754;56.992;24.292;2023-05-18T11:07:03;1.50;;;0.65;;
57947;SDS011;43754;56.992;24.292;2023-05-18T11:09:36;2.28;;;0.40;;
57947;SDS011;43754;56.992;24.292;2023-05-18T11:12:12;0.90;;;0.25;;
57947;SDS011;43754;56.992;24.292;2023-05-18T11:14:47;1.15;;;0.75;;
57947;SDS011;43754;56.992;24.292;2023-05-18T11:17:21;2.03;;;0.50;;
57947;SDS011;43754;56.992;24.292;2023-05-18T11:20:10;1.00;;;0.10;;
57947;SDS011;43754;56.992;24.292;2023-05-18T11:22:48;0.68;;;0.38;;
57947;SDS011;43754;56.992;24.292;2023-05-18T11:28:26;6.07;;;0.95;;
57947;SDS011;43754;56.992;24.292;2023-05-18T11:30:58;8.00;;;0.95;;
57947;SDS011;43754;56.992;24.292;2023-05-18T11:33:30;19.35;;;2.10;;
57947;SDS011;43754;56.992;24.292;2023-05-18T11:36:03;1.95;;;0.30;;
57947;SDS011;43754;56.992;24.292;2023-05-18T11:38:49;0.85;;;0.20;;
57947;SDS011;43754;56.992;24.292;2023-05-18T11:41:27;1.92;;;0.38;;
57947;SDS011;43754;56.992;24.292;2023-05-18T11:44:17;0.63;;;0.40;;
57947;SDS011;43754;56.992;24.292;2023-05-18T11:46:52;2.72;;;0.88;;
57947;SDS011;43754;56.992;24.292;2023-05-18T11:49:27;2.53;;;1.15;;
57947;SDS011;43754;56.992;24.292;2023-05-18T11:52:02;2.42;;;1.08;;
57947;SDS011;43754;56.992;24.292;2023-05-18T11:54:39;3.65;;;0.68;;
57947;SDS011;43754;56.992;24.292;2023-05-18T11:57:14;0.52;;;0.40;;
57947;SDS011;43754;56.992;24.292;2023-05-18T11:59:53;2.72;;;0.30;;
57947;SDS011;43754;56.992;24.292;2023-05-18T12:02:26;3.08;;;0.35;;
57947;SDS011;43754;56.992;24.292;2023-05-18T12:05:01;3.08;;;1.10;;
57947;SDS011;43754;56.992;24.292;2023-05-18T12:07:39;2.20;;;0.22;;
57947;SDS011;43754;56.992;24.292;2023-05-18T12:10:12;0.73;;;0.20;;
57947;SDS011;43754;56.992;24.292;2023-05-18T12:12:46;1.73;;;1.00;;
57947;SDS011;43754;56.992;24.292;2023-05-18T12:15:21;1.27;;;0.43;;
57947;SDS011;43754;56.992;24.292;2023-05-18T12:17:57;1.80;;;0.52;;
57947;SDS011;43754;56.992;24.292;2023-05-18T12:20:29;0.82;;;0.50;;
57947;SDS011;43754;56.992;24.292;2023-05-18T12:23:02;2.03;;;0.60;;
57947;SDS011;43754;56.992;24.292;2023-05-18T12:25:34;0.88;;;0.30;;
57947;SDS011;43754;56.992;24.292;2023-05-18T12:28:07;1.45;;;0.20;;
57947;SDS011;43754;56.992;24.292;2023-05-18T12:30:40;1.02;;;0.20;;
57947;SDS011;43754;56.992;24.292;2023-05-18T12:33:14;1.48;;;0.65;;
57947;SDS011;43754;56.992;24.292;2023-05-18T12:35:46;0.77;;;0.30;;
57947;SDS011;43754;56.992;24.292;2023-05-18T12:38:18;0.80;;;0.52;;
57947;SDS011;43754;56.992;24.292;2023-05-18T12:40:51;3.00;;;0.35;;
57947;SDS011;43754;56.992;24.292;2023-05-18T12:43:24;0.43;;;0.30;;
57947;SDS011;43754;56.992;24.292;2023-05-18T12:45:59;2.55;;;0.45;;
57947;SDS011;43754;56.992;24.292;2023-05-18T12:48:34;0.13;;;0.10;;
57947;SDS011;43754;56.992;24.292;2023-05-18T12:51:07;1.38;;;0.35;;
57947;SDS011;43754;56.992;24.292;2023-05-18T12:53:48;3.78;;;0.30;;
57947;SDS011;43754;56.992;24.292;2023-05-18T12:56:21;2.47;;;0.32;;
57947;SDS011;43754;56.992;24.292;2023-05-18T12:58:56;1.90;;;0.30;;
57947;SDS011;43754;56.992;24.292;2023-05-18T13:01:39;1.00;;;0.20;;
57947;SDS011;43754;56.992;24.292;2023-05-18T13:04:12;2.83;;;0.20;;
57947;SDS011;43754;56.992;24.292;2023-05-18T13:06:44;1.35;;;0.30;;
57947;SDS011;43754;56.992;24.292;2023-05-18T13:09:17;0.30;;;0.10;;
57947;SDS011;43754;56.992;24.292;2023-05-18T13:11:50;2.55;;;0.20;;
57947;SDS011;43754;56.992;24.292;2023-05-18T13:14:37;0.40;;;0.20;;
57947;SDS011;43754;56.992;24.292;2023-05-18T13:17:19;0.88;;;0.28;;
57947;SDS011;43754;56.992;24.292;2023-05-18T13:19:55;4.85;;;0.35;;
57947;SDS011;43754;56.992;24.292;2023-05-18T13:22:27;2.63;;;0.30;;
57947;SDS011;43754;56.992;24.292;2023-05-18T13:25:00;2.72;;;0.20;;
57947;SDS011;43754;56.992;24.292;2023-05-18T13:27:32;1.25;;;0.25;;
57947;SDS011;43754;56.992;24.292;2023-05-18T13:30:05;2.03;;;0.30;;
57947;SDS011;43754;56.992;24.292;2023-05-18T13:32:40;0.73;;;0.40;;
57947;SDS011;43754;56.992;24.292;2023-05-18T13:35:12;1.63;;;0.30;;
57947;SDS011;43754;56.992;24.292;2023-05-18T13:37:44;3.53;;;0.20;;
57947;SDS011;43754;56.992;24.292;2023-05-18T13:40:17;1.50;;;0.60;;
57947;SDS011;43754;56.992;24.292;2023-05-18T13:42:51;2.85;;;0.25;;
57947;SDS011;43754;56.992;24.292;2023-05-18T13:45:23;1.95;;;0.50;;
57947;SDS011;43754;56.992;24.292;2023-05-18T13:47:57;3.65;;;0.20;;
57947;SDS011;43754;56.992;24.292;2023-05-18T13:50:29;0.50;;;0.20;;
57947;SDS011;43754;56.992;24.292;2023-05-18T13:53:01;0.70;;;0.30;;
57947;SDS011;43754;56.992;24.292;2023-05-18T13:55:33;5.80;;;0.60;;
57947;SDS011;43754;56.992;24.292;2023-05-18T13:58:06;7.43;;;0.25;;
57947;SDS011;43754;56.992;24.292;2023-05-18T14:00:38;1.38;;;0.30;;
57947;SDS011;43754;56.992;24.292;2023-05-18T14:03:12;1.75;;;0.30;;
57947;SDS011;43754;56.992;24.292;2023-05-18T14:05:45;0.60;;;0.20;;
57947;SDS011;43754;56.992;24.292;2023-05-18T14:08:18;1.15;;;0.20;;
57947;SDS011;43754;56.992;24.292;2023-05-18T14:10:50;3.90;;;1.05;;
57947;SDS011;43754;56.992;24.292;2023-05-18T14:13:22;2.08;;;0.35;;
57947;SDS011;43754;56.992;24.292;2023-05-18T14:15:54;0.47;;;0.22;;
57947;SDS011;43754;56.992;24.292;2023-05-18T14:18:27;4.20;;;0.50;;
57947;SDS011;43754;56.992;24.292;2023-05-18T14:20:59;2.25;;;0.70;;
57947;SDS011;43754;56.992;24.292;2023-05-18T14:23:32;3.03;;;0.68;;
57947;SDS011;43754;56.992;24.292;2023-05-18T14:26:04;0.95;;;0.50;;
57947;SDS011;43754;56.992;24.292;2023-05-18T14:28:36;2.10;;;0.80;;
57947;SDS011;43754;56.992;24.292;2023-05-18T14:31:08;0.68;;;0.35;;
57947;SDS011;43754;56.992;24.292;2023-05-18T14:33:42;0.75;;;0.30;;
57947;SDS011;43754;56.992;24.292;2023-05-18T14:36:14;1.63;;;0.60;;
57947;SDS011;43754;56.992;24.292;2023-05-18T14:38:46;6.63;;;0.40;;
57947;SDS011;43754;56.992;24.292;2023-05-18T14:41:18;1.48;;;0.50;;
57947;SDS011;43754;56.992;24.292;2023-05-18T14:43:51;1.33;;;0.32;;
57947;SDS011;43754;56.992;24.292;2023-05-18T14:46:24;0.93;;;0.20;;
57947;SDS011;43754;56.992;24.292;2023-05-18T14:48:58;1.27;;;0.28;;
57947;SDS011;43754;56.992;24.292;2023-05-18T14:51:30;1.45;;;0.32;;
57947;SDS011;43754;56.992;24.292;2023-05-18T14:54:02;3.10;;;0.30;;
57947;SDS011;43754;56.992;24.292;2023-05-18T14:56:35;0.30;;;0.20;;
57947;SDS011;43754;56.992;24.292;2023-05-18T14:59:07;2.17;;;0.32;;
57947;SDS011;43754;56.992;24.292;2023-05-18T15:01:39;0.80;;;0.20;;
57947;SDS011;43754;56.992;24.292;2023-05-18T15:04:12;7.03;;;1.27;;
57947;SDS011;43754;56.992;24.292;2023-05-18T15:06:45;9.48;;;1.10;;
57947;SDS011;43754;56.992;24.292;2023-05-18T15:09:17;1.23;;;0.20;;
57947;SDS011;43754;56.992;24.292;2023-05-18T15:11:49;1.92;;;0.20;;
57947;SDS011;43754;56.992;24.292;2023-05-18T15:14:22;2.28;;;0.25;;
57947;SDS011;43754;56.992;24.292;2023-05-18T15:16:54;2.75;;;0.30;;
57947;SDS011;43754;56.992;24.292;2023-05-18T15:19:28;3.08;;;0.20;;